sensor_id;sensor_type;location;lat;lon;timestamp;pressure;altitude;pressure_sealevel;temperature;humidity
23059;BME280;30585;51.502;7.218;2022-07-19T00:00:27;154444.91;;;16.90;86.58
23059;BME280;30585;51.502;7.218;2022-07-19T00:02:55;154500.81;;;17.12;86.02
23059;BME280;30585;51.502;7.218;2022-07-19T00:05:24;154461.81;;;16.96;85.29
23059;BME280;30585;51.502;7.218;2022-07-19T00:07:52;154435.81;;;16.86;86.55
23059;BME280;30585;51.502;7.218;2022-07-19T00:10:20;154476.09;;;17.02;86.35
23059;BME280;30585;51.502;7.218;2022-07-19T00:12:48;154454.03;;;16.93;86.65
23059;BME280;30585;51.502;7.218;2022-07-19T00:15:17;154409.84;;;16.76;86.60
23059;BME280;30585;51.502;7.218;2022-07-19T00:17:47;154434.53;;;16.86;87.49
23059;BME280;30585;51.502;7.218;2022-07-19T00:20:18;154387.81;;;16.67;89.38
23059;BME280;30585;51.502;7.218;2022-07-19T00:22:48;154333.31;;;16.45;88.25
23059;BME280;30585;51.502;7.218;2022-07-19T00:25:16;154386.50;;;16.66;88.59
23059;BME280;30585;51.502;7.218;2022-07-19T00:27:43;154376.13;;;16.62;88.66
23059;BME280;30585;51.502;7.218;2022-07-19T00:30:12;154302.16;;;16.33;88.89
23059;BME280;30585;51.502;7.218;2022-07-19T00:32:40;154344.97;;;16.50;90.29
23059;BME280;30585;51.502;7.218;2022-07-19T00:35:08;154348.84;;;16.51;88.80
23059;BME280;30585;51.502;7.218;2022-07-19T00:37:36;154360.53;;;16.56;89.78
23059;BME280;30585;51.502;7.218;2022-07-19T00:40:15;154347.59;;;16.51;88.61
23059;BME280;30585;51.502;7.218;2022-07-19T00:42:48;154326.84;;;16.43;92.21
23059;BME280;30585;51.502;7.218;2022-07-19T00:45:16;154351.47;;;16.52;90.79
23059;BME280;30585;51.502;7.218;2022-07-19T00:47:44;154321.63;;;16.41;90.17
23059;BME280;30585;51.502;7.218;2022-07-19T00:50:12;154350.19;;;16.52;90.96
23059;BME280;30585;51.502;7.218;2022-07-19T00:52:40;154357.94;;;16.55;91.79
23059;BME280;30585;51.502;7.218;2022-07-19T00:55:10;154356.66;;;16.55;89.94
23059;BME280;30585;51.502;7.218;2022-07-19T00:57:40;154309.94;;;16.36;90.75
23059;BME280;30585;51.502;7.218;2022-07-19T01:00:09;154342.38;;;16.49;90.23
23059;BME280;30585;51.502;7.218;2022-07-19T01:02:38;154328.09;;;16.43;89.94
23059;BME280;30585;51.502;7.218;2022-07-19T01:05:07;154342.38;;;16.49;91.60
23059;BME280;30585;51.502;7.218;2022-07-19T01:07:35;154330.69;;;16.44;91.62
23059;BME280;30585;51.502;7.218;2022-07-19T01:10:05;154311.22;;;16.36;90.33
23059;BME280;30585;51.502;7.218;2022-07-19T01:12:33;154335.91;;;16.46;89.14
23059;BME280;30585;51.502;7.218;2022-07-19T01:15:12;154307.34;;;16.35;91.21
23059;BME280;30585;51.502;7.218;2022-07-19T01:17:40;154326.84;;;16.43;88.24
23059;BME280;30585;51.502;7.218;2022-07-19T01:20:08;154295.69;;;16.30;88.52
23059;BME280;30585;51.502;7.218;2022-07-19T01:22:38;154311.22;;;16.36;88.43
23059;BME280;30585;51.502;7.218;2022-07-19T01:25:07;154293.06;;;16.29;87.75
23059;BME280;30585;51.502;7.218;2022-07-19T01:27:38;154370.94;;;16.60;87.35
23059;BME280;30585;51.502;7.218;2022-07-19T01:30:11;154307.34;;;16.35;84.28
23059;BME280;30585;51.502;7.218;2022-07-19T01:32:40;154308.63;;;16.35;84.75
23059;BME280;30585;51.502;7.218;2022-07-19T01:35:08;154381.28;;;16.64;87.19
23059;BME280;30585;51.502;7.218;2022-07-19T01:37:38;154354.06;;;16.54;85.14
23059;BME280;30585;51.502;7.218;2022-07-19T01:40:08;154322.91;;;16.41;83.30
23059;BME280;30585;51.502;7.218;2022-07-19T01:42:37;154389.09;;;16.67;81.74
23059;BME280;30585;51.502;7.218;2022-07-19T01:45:06;154417.66;;;16.79;79.29
23059;BME280;30585;51.502;7.218;2022-07-19T01:47:35;154447.50;;;16.91;79.28
23059;BME280;30585;51.502;7.218;2022-07-19T01:50:05;154430.59;;;16.84;77.95
23059;BME280;30585;51.502;7.218;2022-07-19T01:52:34;154473.50;;;17.01;76.84
23059;BME280;30585;51.502;7.218;2022-07-19T01:55:04;154459.22;;;16.95;77.04
23059;BME280;30585;51.502;7.218;2022-07-19T01:57:32;154524.16;;;17.21;76.71
23059;BME280;30585;51.502;7.218;2022-07-19T02:00:00;154507.28;;;17.15;75.94
23059;BME280;30585;51.502;7.218;2022-07-19T02:02:28;154572.16;;;17.40;75.28
23059;BME280;30585;51.502;7.218;2022-07-19T02:04:56;154594.25;;;17.49;74.71
23059;BME280;30585;51.502;7.218;2022-07-19T02:07:24;154539.72;;;17.27;73.75
23059;BME280;30585;51.502;7.218;2022-07-19T02:09:52;154560.50;;;17.36;74.02
23059;BME280;30585;51.502;7.218;2022-07-19T02:12:21;154537.13;;;17.26;73.84
23059;BME280;30585;51.502;7.218;2022-07-19T02:14:49;154622.78;;;17.60;74.23
23059;BME280;30585;51.502;7.218;2022-07-19T02:17:18;154576.06;;;17.42;74.45
23059;BME280;30585;51.502;7.218;2022-07-19T02:19:46;154592.94;;;17.49;73.83
23059;BME280;30585;51.502;7.218;2022-07-19T02:22:15;154599.41;;;17.51;73.52
23059;BME280;30585;51.502;7.218;2022-07-19T02:24:43;154538.41;;;17.27;73.40
23059;BME280;30585;51.502;7.218;2022-07-19T02:27:11;154547.53;;;17.31;73.28
23059;BME280;30585;51.502;7.218;2022-07-19T02:29:40;154578.66;;;17.43;75.28
23059;BME280;30585;51.502;7.218;2022-07-19T02:32:08;154573.44;;;17.41;74.50
23059;BME280;30585;51.502;7.218;2022-07-19T02:34:36;154534.53;;;17.25;74.29
23059;BME280;30585;51.502;7.218;2022-07-19T02:37:04;154534.53;;;17.25;74.61
23059;BME280;30585;51.502;7.218;2022-07-19T02:39:32;154577.38;;;17.42;74.46
23059;BME280;30585;51.502;7.218;2022-07-19T02:42:00;154520.22;;;17.20;74.24
23059;BME280;30585;51.502;7.218;2022-07-19T02:44:28;154569.56;;;17.39;75.01
23059;BME280;30585;51.502;7.218;2022-07-19T02:46:58;154528.03;;;17.23;75.42
23059;BME280;30585;51.502;7.218;2022-07-19T02:49:26;154561.75;;;17.36;75.46
23059;BME280;30585;51.502;7.218;2022-07-19T02:51:53;154592.94;;;17.49;73.45
23059;BME280;30585;51.502;7.218;2022-07-19T02:54:21;154599.41;;;17.51;72.33
23059;BME280;30585;51.502;7.218;2022-07-19T02:56:49;154550.06;;;17.32;71.91
23059;BME280;30585;51.502;7.218;2022-07-19T02:59:18;154628.00;;;17.63;71.32
23059;BME280;30585;51.502;7.218;2022-07-19T03:01:45;154550.06;;;17.32;71.31
23059;BME280;30585;51.502;7.218;2022-07-19T03:04:15;154559.22;;;17.35;71.40
23059;BME280;30585;51.502;7.218;2022-07-19T03:06:43;154625.41;;;17.62;70.91
23059;BME280;30585;51.502;7.218;2022-07-19T03:09:11;154602.03;;;17.52;70.83
23059;BME280;30585;51.502;7.218;2022-07-19T03:11:40;154621.50;;;17.60;70.23
23059;BME280;30585;51.502;7.218;2022-07-19T03:14:08;154589.06;;;17.47;69.66
23059;BME280;30585;51.502;7.218;2022-07-19T03:16:36;154659.19;;;17.75;69.41
23059;BME280;30585;51.502;7.218;2022-07-19T03:19:04;154669.59;;;17.79;69.03
23059;BME280;30585;51.502;7.218;2022-07-19T03:21:36;154653.97;;;17.73;68.70
23059;BME280;30585;51.502;7.218;2022-07-19T03:24:04;154685.16;;;17.85;67.98
23059;BME280;30585;51.502;7.218;2022-07-19T03:26:32;154695.50;;;17.89;68.34
23059;BME280;30585;51.502;7.218;2022-07-19T03:29:00;154694.25;;;17.89;68.01
23059;BME280;30585;51.502;7.218;2022-07-19T03:31:28;154692.97;;;17.88;68.12
23059;BME280;30585;51.502;7.218;2022-07-19T03:33:56;154691.63;;;17.88;68.38
23059;BME280;30585;51.502;7.218;2022-07-19T03:36:23;154703.31;;;17.92;68.01
23059;BME280;30585;51.502;7.218;2022-07-19T03:38:53;154708.53;;;17.95;67.97
23059;BME280;30585;51.502;7.218;2022-07-19T03:41:21;154689.03;;;17.87;67.57
23059;BME280;30585;51.502;7.218;2022-07-19T03:43:50;154635.81;;;17.66;68.09
23059;BME280;30585;51.502;7.218;2022-07-19T03:46:18;154669.59;;;17.79;68.15
23059;BME280;30585;51.502;7.218;2022-07-19T03:48:47;154678.66;;;17.83;71.03
23059;BME280;30585;51.502;7.218;2022-07-19T03:51:15;154660.44;;;17.75;73.41
23059;BME280;30585;51.502;7.218;2022-07-19T03:53:42;154637.09;;;17.66;73.72
23059;BME280;30585;51.502;7.218;2022-07-19T03:56:13;154546.19;;;17.30;75.77
23059;BME280;30585;51.502;7.218;2022-07-19T03:58:41;154609.84;;;17.55;71.87
23059;BME280;30585;51.502;7.218;2022-07-19T04:01:09;154555.28;;;17.34;72.63
23059;BME280;30585;51.502;7.218;2022-07-19T04:03:37;154615.03;;;17.57;70.88
23059;BME280;30585;51.502;7.218;2022-07-19T04:06:06;154653.97;;;17.73;70.13
23059;BME280;30585;51.502;7.218;2022-07-19T04:08:34;154635.81;;;17.66;69.21
23059;BME280;30585;51.502;7.218;2022-07-19T04:11:03;154661.78;;;17.76;69.41
23059;BME280;30585;51.502;7.218;2022-07-19T04:13:33;154673.47;;;17.81;69.07
23059;BME280;30585;51.502;7.218;2022-07-19T04:16:02;154681.28;;;17.84;69.56
23059;BME280;30585;51.502;7.218;2022-07-19T04:18:30;154699.44;;;17.91;68.41
23059;BME280;30585;51.502;7.218;2022-07-19T04:20:58;154712.47;;;17.96;68.35
23059;BME280;30585;51.502;7.218;2022-07-19T04:23:26;154718.94;;;17.99;68.01
23059;BME280;30585;51.502;7.218;2022-07-19T04:25:54;154720.28;;;17.99;68.80
23059;BME280;30585;51.502;7.218;2022-07-19T04:28:21;154746.25;;;18.10;67.04
23059;BME280;30585;51.502;7.218;2022-07-19T04:30:51;154755.34;;;18.13;66.50
23059;BME280;30585;51.502;7.218;2022-07-19T04:33:19;154777.44;;;18.22;66.38
23059;BME280;30585;51.502;7.218;2022-07-19T04:35:46;154777.44;;;18.22;67.54
23059;BME280;30585;51.502;7.218;2022-07-19T04:38:14;154783.91;;;18.25;66.91
23059;BME280;30585;51.502;7.218;2022-07-19T04:40:42;154802.09;;;18.32;65.91
23059;BME280;30585;51.502;7.218;2022-07-19T04:43:10;154820.28;;;18.39;66.62
23059;BME280;30585;51.502;7.218;2022-07-19T04:45:37;154829.34;;;18.43;66.27
23059;BME280;30585;51.502;7.218;2022-07-19T04:48:09;154834.56;;;18.45;66.33
23059;BME280;30585;51.502;7.218;2022-07-19T04:50:37;154794.28;;;18.29;66.09
23059;BME280;30585;51.502;7.218;2022-07-19T04:53:05;154772.22;;;18.20;65.41
23059;BME280;30585;51.502;7.218;2022-07-19T04:55:36;154824.22;;;18.41;65.90
23059;BME280;30585;51.502;7.218;2022-07-19T04:58:04;154877.47;;;18.62;66.46
23059;BME280;30585;51.502;7.218;2022-07-19T05:00:32;154887.81;;;18.66;65.81
23059;BME280;30585;51.502;7.218;2022-07-19T05:03:00;154903.44;;;18.72;67.34
23059;BME280;30585;51.502;7.218;2022-07-19T05:05:29;154921.63;;;18.79;65.82
23059;BME280;30585;51.502;7.218;2022-07-19T05:07:57;154958.09;;;18.94;64.08
23059;BME280;30585;51.502;7.218;2022-07-19T05:10:25;154938.53;;;18.86;63.91
23059;BME280;30585;51.502;7.218;2022-07-19T05:12:53;155004.88;;;19.12;64.53
23059;BME280;30585;51.502;7.218;2022-07-19T05:15:21;155019.19;;;19.18;64.09
23059;BME280;30585;51.502;7.218;2022-07-19T05:17:48;155054.28;;;19.32;64.19
23059;BME280;30585;51.502;7.218;2022-07-19T05:20:16;155077.66;;;19.41;66.10
23059;BME280;30585;51.502;7.218;2022-07-19T05:22:45;155098.47;;;19.50;64.15
23059;BME280;30585;51.502;7.218;2022-07-19T05:25:14;155142.66;;;19.67;63.81
23059;BME280;30585;51.502;7.218;2022-07-19T05:27:42;155155.63;;;19.72;64.70
23059;BME280;30585;51.502;7.218;2022-07-19T05:30:11;155192.13;;;19.87;62.25
23059;BME280;30585;51.502;7.218;2022-07-19T05:32:40;155249.34;;;20.10;63.36
23059;BME280;30585;51.502;7.218;2022-07-19T05:35:08;155261.06;;;20.14;61.21
23059;BME280;30585;51.502;7.218;2022-07-19T05:37:36;155323.47;;;20.39;61.18
23059;BME280;30585;51.502;7.218;2022-07-19T05:40:06;155366.41;;;20.56;60.39
23059;BME280;30585;51.502;7.218;2022-07-19T05:42:34;155408.03;;;20.73;60.39
23059;BME280;30585;51.502;7.218;2022-07-19T05:45:03;155460.13;;;20.93;59.07
23059;BME280;30585;51.502;7.218;2022-07-19T05:47:31;155503.09;;;21.10;58.71
23059;BME280;30585;51.502;7.218;2022-07-19T05:49:58;155546.00;;;21.27;57.01
23059;BME280;30585;51.502;7.218;2022-07-19T05:52:26;155590.25;;;21.45;57.66
23059;BME280;30585;51.502;7.218;2022-07-19T05:55:03;155629.38;;;21.60;55.70
23059;BME280;30585;51.502;7.218;2022-07-19T05:57:32;155676.22;;;21.79;57.51
23059;BME280;30585;51.502;7.218;2022-07-19T06:00:00;155682.72;;;21.82;54.93
23059;BME280;30585;51.502;7.218;2022-07-19T06:02:28;155790.78;;;22.24;55.41
23059;BME280;30585;51.502;7.218;2022-07-19T06:04:56;155839.03;;;22.44;56.75
23059;BME280;30585;51.502;7.218;2022-07-19T06:07:23;155874.22;;;22.58;54.28
23059;BME280;30585;51.502;7.218;2022-07-19T06:09:51;155918.50;;;22.75;53.66
23059;BME280;30585;51.502;7.218;2022-07-19T06:12:19;155965.38;;;22.94;54.17
23059;BME280;30585;51.502;7.218;2022-07-19T06:14:48;156007.06;;;23.10;52.03
23059;BME280;30585;51.502;7.218;2022-07-19T06:17:16;156037.09;;;23.22;52.83
23059;BME280;30585;51.502;7.218;2022-07-19T06:19:44;156087.91;;;23.42;51.69
23059;BME280;30585;51.502;7.218;2022-07-19T06:22:11;156132.19;;;23.60;51.73
23059;BME280;30585;51.502;7.218;2022-07-19T06:24:39;156179.13;;;23.78;52.30
23059;BME280;30585;51.502;7.218;2022-07-19T06:27:07;156218.25;;;23.94;52.22
23059;BME280;30585;51.502;7.218;2022-07-19T06:29:35;156269.13;;;24.14;49.37
23059;BME280;30585;51.502;7.218;2022-07-19T06:32:04;156319.94;;;24.34;45.88
23059;BME280;30585;51.502;7.218;2022-07-19T06:34:32;156349.97;;;24.46;46.49
23059;BME280;30585;51.502;7.218;2022-07-19T06:37:00;156404.75;;;24.68;47.59
23059;BME280;30585;51.502;7.218;2022-07-19T06:39:27;156455.63;;;24.88;47.16
23059;BME280;30585;51.502;7.218;2022-07-19T06:41:55;156507.81;;;25.09;46.62
23059;BME280;30585;51.502;7.218;2022-07-19T06:44:23;156541.69;;;25.22;45.27
23059;BME280;30585;51.502;7.218;2022-07-19T06:46:51;156583.47;;;25.39;45.40
23059;BME280;30585;51.502;7.218;2022-07-19T06:49:22;156601.78;;;25.46;44.35
23059;BME280;30585;51.502;7.218;2022-07-19T06:51:50;156680.06;;;25.77;46.01
23059;BME280;30585;51.502;7.218;2022-07-19T06:54:18;156734.81;;;25.98;44.75
23059;BME280;30585;51.502;7.218;2022-07-19T06:56:45;156780.56;;;26.17;44.40
23059;BME280;30585;51.502;7.218;2022-07-19T06:59:13;156802.78;;;26.25;46.91
23059;BME280;30585;51.502;7.218;2022-07-19T07:01:41;156841.91;;;26.41;45.52
23059;BME280;30585;51.502;7.218;2022-07-19T07:04:09;156883.66;;;26.57;45.96
23059;BME280;30585;51.502;7.218;2022-07-19T07:06:38;156861.50;;;26.49;40.10
23059;BME280;30585;51.502;7.218;2022-07-19T07:09:06;156930.66;;;26.76;42.78
23059;BME280;30585;51.502;7.218;2022-07-19T07:11:34;156981.66;;;26.96;40.25
23059;BME280;30585;51.502;7.218;2022-07-19T07:14:02;157057.38;;;27.26;42.70
23059;BME280;30585;51.502;7.218;2022-07-19T07:16:30;157100.50;;;27.43;42.58
23059;BME280;30585;51.502;7.218;2022-07-19T07:18:58;157130.56;;;27.55;45.99
23059;BME280;30585;51.502;7.218;2022-07-19T07:21:26;157216.75;;;27.89;42.96
23059;BME280;30585;51.502;7.218;2022-07-19T07:23:55;157259.88;;;28.06;39.80
23059;BME280;30585;51.502;7.218;2022-07-19T07:26:23;157313.47;;;28.27;40.86
23059;BME280;30585;51.502;7.218;2022-07-19T07:28:51;157326.56;;;28.33;38.75
23059;BME280;30585;51.502;7.218;2022-07-19T07:31:19;157335.72;;;28.36;39.81
23059;BME280;30585;51.502;7.218;2022-07-19T07:33:47;157412.78;;;28.67;40.21
23059;BME280;30585;51.502;7.218;2022-07-19T07:36:15;157442.88;;;28.79;38.37
23059;BME280;30585;51.502;7.218;2022-07-19T07:38:42;157479.50;;;28.93;35.50
23059;BME280;30585;51.502;7.218;2022-07-19T07:41:12;157444.22;;;28.79;35.98
23059;BME280;30585;51.502;7.218;2022-07-19T07:43:59;157471.63;;;28.90;36.81
23059;BME280;30585;51.502;7.218;2022-07-19T07:46:27;157591.94;;;29.37;36.29
23059;BME280;30585;51.502;7.218;2022-07-19T07:48:55;157680.81;;;29.73;37.42
23059;BME280;30585;51.502;7.218;2022-07-19T07:51:23;157743.66;;;29.97;35.82
23059;BME280;30585;51.502;7.218;2022-07-19T07:54:10;157814.28;;;30.25;36.72
23059;BME280;30585;51.502;7.218;2022-07-19T07:56:39;157837.81;;;30.35;37.06
23059;BME280;30585;51.502;7.218;2022-07-19T07:59:08;157905.88;;;30.61;36.31
23059;BME280;30585;51.502;7.218;2022-07-19T08:01:36;157863.97;;;30.45;35.27
23059;BME280;30585;51.502;7.218;2022-07-19T08:04:06;157871.84;;;30.48;34.79
23059;BME280;30585;51.502;7.218;2022-07-19T08:06:33;157989.59;;;30.95;37.52
23059;BME280;30585;51.502;7.218;2022-07-19T08:09:02;158078.63;;;31.30;35.04
23059;BME280;30585;51.502;7.218;2022-07-19T08:11:30;158116.56;;;31.45;34.74
23059;BME280;30585;51.502;7.218;2022-07-19T08:14:00;158144.03;;;31.55;32.13
23059;BME280;30585;51.502;7.218;2022-07-19T08:16:28;158246.16;;;31.96;32.52
23059;BME280;30585;51.502;7.218;2022-07-19T08:18:56;158306.41;;;32.20;33.56
23059;BME280;30585;51.502;7.218;2022-07-19T08:21:24;158352.25;;;32.38;29.00
23059;BME280;30585;51.502;7.218;2022-07-19T08:23:52;158335.25;;;32.31;27.89
23059;BME280;30585;51.502;7.218;2022-07-19T08:26:20;158391.53;;;32.53;32.40
23059;BME280;30585;51.502;7.218;2022-07-19T08:28:48;158463.59;;;32.82;29.81
23059;BME280;30585;51.502;7.218;2022-07-19T08:31:17;158468.84;;;32.84;28.71
23059;BME280;30585;51.502;7.218;2022-07-19T08:33:45;158472.75;;;32.85;28.66
23059;BME280;30585;51.502;7.218;2022-07-19T08:36:13;158436.06;;;32.71;26.70
23059;BME280;30585;51.502;7.218;2022-07-19T08:38:41;158442.59;;;32.73;28.43
23059;BME280;30585;51.502;7.218;2022-07-19T08:41:08;158584.06;;;33.29;30.12
23059;BME280;30585;51.502;7.218;2022-07-19T08:43:37;158561.81;;;33.20;24.19
23059;BME280;30585;51.502;7.218;2022-07-19T08:46:05;158591.94;;;33.32;28.93
23059;BME280;30585;51.502;7.218;2022-07-19T08:48:35;158656.16;;;33.58;27.90
23059;BME280;30585;51.502;7.218;2022-07-19T08:51:12;158759.69;;;33.98;25.71
23059;BME280;30585;51.502;7.218;2022-07-19T08:53:40;158767.56;;;34.01;25.27
23059;BME280;30585;51.502;7.218;2022-07-19T08:56:08;158810.81;;;34.18;24.44
23059;BME280;30585;51.502;7.218;2022-07-19T08:58:49;158820.00;;;34.22;24.45
23059;BME280;30585;51.502;7.218;2022-07-19T09:01:17;158899.97;;;34.54;24.64
23059;BME280;30585;51.502;7.218;2022-07-19T09:04:11;158941.88;;;34.70;23.45
23059;BME280;30585;51.502;7.218;2022-07-19T09:06:44;158708.56;;;33.78;22.63
23059;BME280;30585;51.502;7.218;2022-07-19T09:09:14;158799.03;;;34.14;23.34
23059;BME280;30585;51.502;7.218;2022-07-19T09:11:43;158924.84;;;34.63;24.68
23059;BME280;30585;51.502;7.218;2022-07-19T09:14:18;158931.44;;;34.66;22.46
23059;BME280;30585;51.502;7.218;2022-07-19T09:16:55;158987.78;;;34.88;23.73
23059;BME280;30585;51.502;7.218;2022-07-19T09:19:25;159058.59;;;35.16;24.08
23059;BME280;30585;51.502;7.218;2022-07-19T09:21:55;159132.06;;;35.45;23.48
23059;BME280;30585;51.502;7.218;2022-07-19T09:24:24;159124.19;;;35.42;21.81
23059;BME280;30585;51.502;7.218;2022-07-19T09:27:04;159159.56;;;35.56;20.78
23059;BME280;30585;51.502;7.218;2022-07-19T09:29:34;158969.44;;;34.81;22.97
23059;BME280;30585;51.502;7.218;2022-07-19T09:32:07;159059.88;;;35.17;23.72
23059;BME280;30585;51.502;7.218;2022-07-19T09:34:39;158940.59;;;34.70;24.24
23059;BME280;30585;51.502;7.218;2022-07-19T09:37:11;159130.72;;;35.45;22.66
23059;BME280;30585;51.502;7.218;2022-07-19T09:39:40;159095.28;;;35.31;23.29
23059;BME280;30585;51.502;7.218;2022-07-19T09:42:13;159167.44;;;35.59;21.05
23059;BME280;30585;51.502;7.218;2022-07-19T09:44:42;159233.00;;;35.85;21.16
23059;BME280;30585;51.502;7.218;2022-07-19T09:47:11;158985.16;;;34.87;21.11
23059;BME280;30585;51.502;7.218;2022-07-19T09:49:41;159129.44;;;35.44;21.57
23059;BME280;30585;51.502;7.218;2022-07-19T09:52:08;159247.41;;;35.91;23.33
23059;BME280;30585;51.502;7.218;2022-07-19T09:54:38;159339.25;;;36.27;20.87
23059;BME280;30585;51.502;7.218;2022-07-19T09:57:07;159397.03;;;36.49;20.13
23059;BME280;30585;51.502;7.218;2022-07-19T09:59:36;159435.06;;;36.64;21.45
23059;BME280;30585;51.502;7.218;2022-07-19T10:02:05;159513.81;;;36.95;20.68
23059;BME280;30585;51.502;7.218;2022-07-19T10:04:34;159533.53;;;37.03;21.03
23059;BME280;30585;51.502;7.218;2022-07-19T10:07:04;159376.03;;;36.41;22.23
23059;BME280;30585;51.502;7.218;2022-07-19T10:09:32;159533.53;;;37.03;21.42
23059;BME280;30585;51.502;7.218;2022-07-19T10:11:59;159457.38;;;36.73;18.84
23059;BME280;30585;51.502;7.218;2022-07-19T10:14:27;159558.44;;;37.13;22.95
23059;BME280;30585;51.502;7.218;2022-07-19T10:17:21;159546.63;;;37.08;20.58
23059;BME280;30585;51.502;7.218;2022-07-19T10:19:55;159626.69;;;37.40;19.76
23059;BME280;30585;51.502;7.218;2022-07-19T10:22:26;159617.47;;;37.36;19.13
23059;BME280;30585;51.502;7.218;2022-07-19T10:24:56;159633.22;;;37.42;19.62
23059;BME280;30585;51.502;7.218;2022-07-19T10:27:39;159672.63;;;37.58;19.19
23059;BME280;30585;51.502;7.218;2022-07-19T10:30:38;159671.28;;;37.57;18.72
23059;BME280;30585;51.502;7.218;2022-07-19T10:33:29;159414.09;;;36.56;18.04
23059;BME280;30585;51.502;7.218;2022-07-19T10:35:57;159289.41;;;36.07;19.99
23059;BME280;30585;51.502;7.218;2022-07-19T10:38:26;159248.75;;;35.91;18.46
23059;BME280;30585;51.502;7.218;2022-07-19T10:40:54;159318.28;;;36.18;19.38
23059;BME280;30585;51.502;7.218;2022-07-19T10:43:25;159254.00;;;35.93;17.77
23059;BME280;30585;51.502;7.218;2022-07-19T10:46:10;159403.56;;;36.52;18.97
23059;BME280;30585;51.502;7.218;2022-07-19T10:48:41;159512.50;;;36.95;19.84
23059;BME280;30585;51.502;7.218;2022-07-19T10:51:11;159664.75;;;37.55;19.74
23059;BME280;30585;51.502;7.218;2022-07-19T10:53:59;159824.91;;;38.18;19.39
23059;BME280;30585;51.502;7.218;2022-07-19T10:56:34;159836.72;;;38.23;19.19
23059;BME280;30585;51.502;7.218;2022-07-19T10:59:29;159673.91;;;37.58;19.28
23059;BME280;30585;51.502;7.218;2022-07-19T11:01:57;159421.97;;;36.59;17.52
23059;BME280;30585;51.502;7.218;2022-07-19T11:04:47;159597.75;;;37.29;19.60
23059;BME280;30585;51.502;7.218;2022-07-19T11:07:17;159722.50;;;37.78;18.22
23059;BME280;30585;51.502;7.218;2022-07-19T11:09:49;159688.34;;;37.64;19.73
23059;BME280;30585;51.502;7.218;2022-07-19T11:12:25;159633.22;;;37.42;18.46
23059;BME280;30585;51.502;7.218;2022-07-19T11:14:54;159828.84;;;38.19;19.70
23059;BME280;30585;51.502;7.218;2022-07-19T11:17:50;159853.75;;;38.29;19.82
23059;BME280;30585;51.502;7.218;2022-07-19T11:20:18;159919.47;;;38.55;19.97
23059;BME280;30585;51.502;7.218;2022-07-19T11:22:49;159962.75;;;38.72;18.74
23059;BME280;30585;51.502;7.218;2022-07-19T11:25:25;160006.13;;;38.89;15.79
23059;BME280;30585;51.502;7.218;2022-07-19T11:27:53;160061.28;;;39.11;18.65
23059;BME280;30585;51.502;7.218;2022-07-19T11:30:22;160083.56;;;39.20;17.54
23059;BME280;30585;51.502;7.218;2022-07-19T11:32:51;159890.56;;;38.44;18.69
23059;BME280;30585;51.502;7.218;2022-07-19T11:35:20;159819.66;;;38.16;17.98
23059;BME280;30585;51.502;7.218;2022-07-19T11:37:48;159767.16;;;37.95;18.42
23059;BME280;30585;51.502;7.218;2022-07-19T11:40:17;159620.09;;;37.37;17.62
23059;BME280;30585;51.502;7.218;2022-07-19T11:42:46;159649.00;;;37.49;17.71
23059;BME280;30585;51.502;7.218;2022-07-19T11:45:41;159785.50;;;38.02;18.71
23059;BME280;30585;51.502;7.218;2022-07-19T11:48:11;159960.16;;;38.71;17.90
23059;BME280;30585;51.502;7.218;2022-07-19T11:50:39;159979.81;;;38.79;16.62
23059;BME280;30585;51.502;7.218;2022-07-19T11:53:19;159982.50;;;38.80;18.34
23059;BME280;30585;51.502;7.218;2022-07-19T11:55:48;160037.66;;;39.02;16.46
23059;BME280;30585;51.502;7.218;2022-07-19T11:58:16;160179.50;;;39.57;16.40
23059;BME280;30585;51.502;7.218;2022-07-19T12:00:44;159901.03;;;38.48;15.66
23059;BME280;30585;51.502;7.218;2022-07-19T12:03:14;160107.31;;;39.29;18.18
23059;BME280;30585;51.502;7.218;2022-07-19T12:05:54;160224.19;;;39.75;18.07
23059;BME280;30585;51.502;7.218;2022-07-19T12:08:35;160007.47;;;38.90;17.81
23059;BME280;30585;51.502;7.218;2022-07-19T12:11:17;160048.13;;;39.06;16.03
23059;BME280;30585;51.502;7.218;2022-07-19T12:13:46;160103.34;;;39.27;16.36
23059;BME280;30585;51.502;7.218;2022-07-19T12:16:16;160192.66;;;39.63;16.05
23059;BME280;30585;51.502;7.218;2022-07-19T12:18:48;160224.19;;;39.75;17.47
23059;BME280;30585;51.502;7.218;2022-07-19T12:21:22;160345.06;;;40.23;17.63
23059;BME280;30585;51.502;7.218;2022-07-19T12:24:10;160371.34;;;40.33;16.16
23059;BME280;30585;51.502;7.218;2022-07-19T12:26:41;160434.44;;;40.58;16.52
23059;BME280;30585;51.502;7.218;2022-07-19T12:29:22;160529.06;;;40.95;16.39
23059;BME280;30585;51.502;7.218;2022-07-19T12:31:53;160555.41;;;41.05;17.53
23059;BME280;30585;51.502;7.218;2022-07-19T12:34:21;160615.81;;;41.29;17.32
23059;BME280;30585;51.502;7.218;2022-07-19T12:36:48;160573.78;;;41.12;15.61
23059;BME280;30585;51.502;7.218;2022-07-19T12:39:23;160423.91;;;40.54;16.30
23059;BME280;30585;51.502;7.218;2022-07-19T12:41:59;160389.72;;;40.40;14.54
23059;BME280;30585;51.502;7.218;2022-07-19T12:44:28;160536.91;;;40.98;17.70
23059;BME280;30585;51.502;7.218;2022-07-19T12:46:57;160480.44;;;40.76;15.81
23059;BME280;30585;51.502;7.218;2022-07-19T12:49:46;160484.41;;;40.77;16.21
23059;BME280;30585;51.502;7.218;2022-07-19T12:52:14;160533.00;;;40.96;15.83
23059;BME280;30585;51.502;7.218;2022-07-19T12:54:42;160596.13;;;41.21;14.84
23059;BME280;30585;51.502;7.218;2022-07-19T12:57:11;160029.75;;;38.99;15.10
23059;BME280;30585;51.502;7.218;2022-07-19T12:59:39;160313.53;;;40.10;16.72
23059;BME280;30585;51.502;7.218;2022-07-19T13:02:09;160523.78;;;40.93;16.45
23059;BME280;30585;51.502;7.218;2022-07-19T13:04:38;160371.34;;;40.33;14.09